sensor_id;sensor_type;location;lat;lon;timestamp;pressure;altitude;pressure_sealevel;temperature;humidity
69058;BME280;56128;37.534;-122.308;2023-02-19T00:00:02;101494.66;;;15.57;33.42
69058;BME280;56128;37.534;-122.308;2023-02-19T00:02:29;101479.72;;;15.53;34.26
69058;BME280;56128;37.534;-122.308;2023-02-19T00:04:55;101480.25;;;15.47;35.30
69058;BME280;56128;37.534;-122.308;2023-02-19T00:07:21;101474.66;;;15.38;35.71
69058;BME280;56128;37.534;-122.308;2023-02-19T00:09:47;101476.38;;;15.39;36.20
69058;BME280;56128;37.534;-122.308;2023-02-19T00:12:13;101465.41;;;15.31;38.57
69058;BME280;56128;37.534;-122.308;2023-02-19T00:14:40;101462.94;;;15.28;38.83
69058;BME280;56128;37.534;-122.308;2023-02-19T00:17:06;101455.78;;;15.17;41.00
69058;BME280;56128;37.534;-122.308;2023-02-19T00:19:32;101464.47;;;15.21;40.19
69058;BME280;56128;37.534;-122.308;2023-02-19T00:21:58;101455.06;;;15.15;40.78
69058;BME280;56128;37.534;-122.308;2023-02-19T00:24:25;101453.47;;;15.13;40.50
69058;BME280;56128;37.534;-122.308;2023-02-19T00:26:51;101454.00;;;15.06;41.40
69058;BME280;56128;37.534;-122.308;2023-02-19T00:29:19;101450.69;;;15.03;41.58
69058;BME280;56128;37.534;-122.308;2023-02-19T00:31:46;101450.84;;;15.01;41.10
69058;BME280;56128;37.534;-122.308;2023-02-19T00:34:13;101454.88;;;14.96;42.45
69058;BME280;56128;37.534;-122.308;2023-02-19T00:36:41;101452.13;;;14.86;43.01
69058;BME280;56128;37.534;-122.308;2023-02-19T00:39:09;101458.03;;;14.80;43.71
69058;BME280;56128;37.534;-122.308;2023-02-19T00:41:36;101459.25;;;14.75;43.11
69058;BME280;56128;37.534;-122.308;2023-02-19T00:44:07;101452.91;;;14.65;44.34
69058;BME280;56128;37.534;-122.308;2023-02-19T00:46:35;101457.53;;;14.63;44.53
69058;BME280;56128;37.534;-122.308;2023-02-19T00:49:02;101466.72;;;14.60;45.40
69058;BME280;56128;37.534;-122.308;2023-02-19T00:51:31;101475.81;;;14.59;46.13
69058;BME280;56128;37.534;-122.308;2023-02-19T00:53:58;101473.69;;;14.63;46.82
69058;BME280;56128;37.534;-122.308;2023-02-19T00:56:25;101486.06;;;14.54;47.83
69058;BME280;56128;37.534;-122.308;2023-02-19T00:58:52;101496.78;;;14.44;50.37
69058;BME280;56128;37.534;-122.308;2023-02-19T01:01:19;101503.63;;;14.37;51.13
69058;BME280;56128;37.534;-122.308;2023-02-19T01:03:46;101513.16;;;14.19;52.16
69058;BME280;56128;37.534;-122.308;2023-02-19T01:06:13;101525.78;;;14.07;53.26
69058;BME280;56128;37.534;-122.308;2023-02-19T01:08:40;101527.84;;;13.92;53.95
69058;BME280;56128;37.534;-122.308;2023-02-19T01:11:11;101522.81;;;13.87;54.84
69058;BME280;56128;37.534;-122.308;2023-02-19T01:13:38;101528.78;;;13.79;55.23
69058;BME280;56128;37.534;-122.308;2023-02-19T01:16:23;101528.03;;;13.66;54.90
69058;BME280;56128;37.534;-122.308;2023-02-19T01:18:49;101530.94;;;13.52;56.81
69058;BME280;56128;37.534;-122.308;2023-02-19T01:21:24;101533.22;;;13.45;57.64
69058;BME280;56128;37.534;-122.308;2023-02-19T01:23:53;101529.47;;;13.35;57.37
69058;BME280;56128;37.534;-122.308;2023-02-19T01:26:28;101546.31;;;13.25;58.08
69058;BME280;56128;37.534;-122.308;2023-02-19T01:28:54;101546.28;;;13.14;59.34
69058;BME280;56128;37.534;-122.308;2023-02-19T01:31:22;101541.94;;;13.00;60.86
69058;BME280;56128;37.534;-122.308;2023-02-19T01:33:52;101540.41;;;12.96;60.70
69058;BME280;56128;37.534;-122.308;2023-02-19T01:36:19;101547.75;;;12.94;61.75
69058;BME280;56128;37.534;-122.308;2023-02-19T01:38:46;101546.69;;;12.83;62.41
69058;BME280;56128;37.534;-122.308;2023-02-19T01:41:18;101540.06;;;12.76;63.05
69058;BME280;56128;37.534;-122.308;2023-02-19T01:43:58;101542.13;;;12.60;65.20
69058;BME280;56128;37.534;-122.308;2023-02-19T01:46:29;101550.75;;;12.52;64.13
69058;BME280;56128;37.534;-122.308;2023-02-19T01:49:05;101552.38;;;12.42;64.45
69058;BME280;56128;37.534;-122.308;2023-02-19T01:51:35;101561.19;;;12.31;62.33
69058;BME280;56128;37.534;-122.308;2023-02-19T01:54:04;101566.91;;;12.26;61.38
69058;BME280;56128;37.534;-122.308;2023-02-19T01:56:33;101571.28;;;12.14;60.19
69058;BME280;56128;37.534;-122.308;2023-02-19T01:59:01;101574.75;;;12.16;57.83
69058;BME280;56128;37.534;-122.308;2023-02-19T02:01:27;101579.47;;;12.13;55.42
69058;BME280;56128;37.534;-122.308;2023-02-19T02:03:54;101571.94;;;12.05;55.17
69058;BME280;56128;37.534;-122.308;2023-02-19T02:06:26;101576.13;;;11.96;56.07
69058;BME280;56128;37.534;-122.308;2023-02-19T02:08:56;101565.38;;;11.83;57.73
69058;BME280;56128;37.534;-122.308;2023-02-19T02:11:49;101558.28;;;11.69;58.48
69058;BME280;56128;37.534;-122.308;2023-02-19T02:14:23;101569.50;;;11.62;58.56
69058;BME280;56128;37.534;-122.308;2023-02-19T02:22:53;101572.38;;;11.18;65.82
69058;BME280;56128;37.534;-122.308;2023-02-19T02:29:00;101556.69;;;10.85;71.56
69058;BME280;56128;37.534;-122.308;2023-02-19T02:31:38;101553.84;;;10.74;74.98
69058;BME280;56128;37.534;-122.308;2023-02-19T02:34:18;101548.44;;;10.61;77.52
69058;BME280;56128;37.534;-122.308;2023-02-19T02:36:50;101546.53;;;10.48;78.72
69058;BME280;56128;37.534;-122.308;2023-02-19T02:39:21;101532.97;;;10.37;80.08
69058;BME280;56128;37.534;-122.308;2023-02-19T02:41:56;101531.88;;;10.25;81.16
69058;BME280;56128;37.534;-122.308;2023-02-19T02:44:41;101533.63;;;10.12;84.13
69058;BME280;56128;37.534;-122.308;2023-02-19T02:47:28;101526.09;;;10.04;83.75
69058;BME280;56128;37.534;-122.308;2023-02-19T02:50:17;101532.19;;;9.91;86.29
69058;BME280;56128;37.534;-122.308;2023-02-19T02:52:47;101525.47;;;9.84;87.46
69058;BME280;56128;37.534;-122.308;2023-02-19T02:55:38;101530.53;;;9.74;88.39
69058;BME280;56128;37.534;-122.308;2023-02-19T02:58:07;101535.66;;;9.63;89.37
69058;BME280;56128;37.534;-122.308;2023-02-19T03:00:34;101543.34;;;9.53;91.04
69058;BME280;56128;37.534;-122.308;2023-02-19T03:03:23;101555.44;;;9.45;91.64
69058;BME280;56128;37.534;-122.308;2023-02-19T03:06:11;101557.19;;;9.30;93.26
69058;BME280;56128;37.534;-122.308;2023-02-19T03:08:47;101559.47;;;9.21;94.24
69058;BME280;56128;37.534;-122.308;2023-02-19T03:11:17;101571.53;;;9.13;97.12
69058;BME280;56128;37.534;-122.308;2023-02-19T03:14:17;101565.94;;;9.01;98.03
69058;BME280;56128;37.534;-122.308;2023-02-19T03:17:15;101552.06;;;8.94;98.76
69058;BME280;56128;37.534;-122.308;2023-02-19T03:20:04;101544.34;;;8.90;100.00
69058;BME280;56128;37.534;-122.308;2023-02-19T03:22:34;101547.09;;;8.88;100.00
69058;BME280;56128;37.534;-122.308;2023-02-19T03:25:08;101559.66;;;8.86;100.00
69058;BME280;56128;37.534;-122.308;2023-02-19T03:27:56;101555.53;;;8.81;100.00
69058;BME280;56128;37.534;-122.308;2023-02-19T03:30:34;101560.72;;;8.84;100.00
69058;BME280;56128;37.534;-122.308;2023-02-19T03:33:14;101566.28;;;8.79;100.00
69058;BME280;56128;37.534;-122.308;2023-02-19T03:35:46;101572.66;;;8.76;100.00
69058;BME280;56128;37.534;-122.308;2023-02-19T03:44:26;101578.16;;;8.57;100.00
69058;BME280;56128;37.534;-122.308;2023-02-19T03:47:01;101582.88;;;8.52;100.00
69058;BME280;56128;37.534;-122.308;2023-02-19T03:49:47;101577.88;;;8.46;100.00
69058;BME280;56128;37.534;-122.308;2023-02-19T03:55:04;101598.28;;;8.29;100.00
69058;BME280;56128;37.534;-122.308;2023-02-19T03:57:52;101616.50;;;8.21;100.00
69058;BME280;56128;37.534;-122.308;2023-02-19T04:00:39;101618.69;;;8.13;100.00
69058;BME280;56128;37.534;-122.308;2023-02-19T04:03:28;101624.38;;;8.07;100.00
69058;BME280;56128;37.534;-122.308;2023-02-19T04:06:01;101625.63;;;8.00;100.00
69058;BME280;56128;37.534;-122.308;2023-02-19T04:08:30;101633.22;;;7.90;100.00
69058;BME280;56128;37.534;-122.308;2023-02-19T04:10:59;101622.16;;;7.80;100.00
69058;BME280;56128;37.534;-122.308;2023-02-19T04:13:30;101628.50;;;7.77;100.00
69058;BME280;56128;37.534;-122.308;2023-02-19T04:16:02;101620.75;;;7.73;100.00
69058;BME280;56128;37.534;-122.308;2023-02-19T04:18:35;101618.25;;;7.70;100.00
69058;BME280;56128;37.534;-122.308;2023-02-19T04:21:05;101617.75;;;7.61;100.00
69058;BME280;56128;37.534;-122.308;2023-02-19T04:23:39;101635.38;;;7.64;100.00
69058;BME280;56128;37.534;-122.308;2023-02-19T04:26:08;101643.63;;;7.59;100.00
69058;BME280;56128;37.534;-122.308;2023-02-19T04:28:35;101641.09;;;7.56;100.00
69058;BME280;56128;37.534;-122.308;2023-02-19T04:31:02;101631.53;;;7.52;100.00
69058;BME280;56128;37.534;-122.308;2023-02-19T04:33:29;101645.78;;;7.51;100.00
69058;BME280;56128;37.534;-122.308;2023-02-19T04:35:55;101649.47;;;7.48;100.00
69058;BME280;56128;37.534;-122.308;2023-02-19T04:38:21;101640.75;;;7.45;100.00
69058;BME280;56128;37.534;-122.308;2023-02-19T04:40:48;101645.44;;;7.40;100.00
69058;BME280;56128;37.534;-122.308;2023-02-19T04:43:16;101647.41;;;7.36;100.00
69058;BME280;56128;37.534;-122.308;2023-02-19T04:45:43;101655.59;;;7.31;100.00
69058;BME280;56128;37.534;-122.308;2023-02-19T04:48:09;101660.28;;;7.26;100.00
69058;BME280;56128;37.534;-122.308;2023-02-19T04:50:39;101664.13;;;7.21;100.00
69058;BME280;56128;37.534;-122.308;2023-02-19T04:53:06;101662.59;;;7.15;100.00
69058;BME280;56128;37.534;-122.308;2023-02-19T04:55:36;101669.09;;;7.09;100.00
69058;BME280;56128;37.534;-122.308;2023-02-19T04:58:02;101668.50;;;7.03;100.00
69058;BME280;56128;37.534;-122.308;2023-02-19T05:00:29;101676.72;;;6.98;100.00
69058;BME280;56128;37.534;-122.308;2023-02-19T05:02:55;101679.66;;;6.92;100.00
69058;BME280;56128;37.534;-122.308;2023-02-19T05:05:22;101682.59;;;6.86;100.00
69058;BME280;56128;37.534;-122.308;2023-02-19T05:07:48;101689.94;;;6.80;100.00
69058;BME280;56128;37.534;-122.308;2023-02-19T05:10:14;101677.84;;;6.73;100.00
69058;BME280;56128;37.534;-122.308;2023-02-19T05:12:40;101683.34;;;6.69;100.00
69058;BME280;56128;37.534;-122.308;2023-02-19T05:15:07;101687.25;;;6.61;100.00
69058;BME280;56128;37.534;-122.308;2023-02-19T05:17:33;101683.13;;;6.54;100.00
69058;BME280;56128;37.534;-122.308;2023-02-19T05:19:59;101691.28;;;6.49;100.00
69058;BME280;56128;37.534;-122.308;2023-02-19T05:22:27;101697.75;;;6.44;100.00
69058;BME280;56128;37.534;-122.308;2023-02-19T05:24:54;101693.63;;;6.37;100.00
69058;BME280;56128;37.534;-122.308;2023-02-19T05:27:20;101702.72;;;6.31;100.00
69058;BME280;56128;37.534;-122.308;2023-02-19T05:29:46;101699.41;;;6.26;100.00
69058;BME280;56128;37.534;-122.308;2023-02-19T05:32:13;101685.59;;;6.17;100.00
69058;BME280;56128;37.534;-122.308;2023-02-19T05:34:39;101694.50;;;6.16;100.00
69058;BME280;56128;37.534;-122.308;2023-02-19T05:37:05;101711.50;;;6.12;100.00
69058;BME280;56128;37.534;-122.308;2023-02-19T05:39:31;101716.19;;;6.06;100.00
69058;BME280;56128;37.534;-122.308;2023-02-19T05:41:57;101717.13;;;6.05;100.00
69058;BME280;56128;37.534;-122.308;2023-02-19T05:44:24;101721.69;;;6.01;100.00
69058;BME280;56128;37.534;-122.308;2023-02-19T05:46:50;101722.81;;;5.95;100.00
69058;BME280;56128;37.534;-122.308;2023-02-19T05:49:16;101717.88;;;5.86;100.00
69058;BME280;56128;37.534;-122.308;2023-02-19T05:51:42;101717.81;;;5.88;100.00
69058;BME280;56128;37.534;-122.308;2023-02-19T05:54:09;101723.38;;;5.81;100.00
69058;BME280;56128;37.534;-122.308;2023-02-19T05:56:40;101727.81;;;5.81;100.00
69058;BME280;56128;37.534;-122.308;2023-02-19T06:01:39;101742.38;;;5.71;100.00
69058;BME280;56128;37.534;-122.308;2023-02-19T06:04:05;101742.63;;;5.64;100.00
69058;BME280;56128;37.534;-122.308;2023-02-19T06:06:32;101734.00;;;5.59;100.00
69058;BME280;56128;37.534;-122.308;2023-02-19T06:08:58;101725.34;;;5.54;100.00
69058;BME280;56128;37.534;-122.308;2023-02-19T06:11:24;101729.00;;;5.51;100.00
69058;BME280;56128;37.534;-122.308;2023-02-19T06:13:50;101736.19;;;5.48;100.00
69058;BME280;56128;37.534;-122.308;2023-02-19T06:16:17;101729.47;;;5.39;100.00
69058;BME280;56128;37.534;-122.308;2023-02-19T06:18:44;101726.88;;;5.38;100.00
69058;BME280;56128;37.534;-122.308;2023-02-19T06:21:11;101725.13;;;5.36;100.00
69058;BME280;56128;37.534;-122.308;2023-02-19T06:23:38;101726.13;;;5.34;100.00
69058;BME280;56128;37.534;-122.308;2023-02-19T06:26:27;101725.63;;;5.24;100.00
69058;BME280;56128;37.534;-122.308;2023-02-19T06:28:52;101727.50;;;5.20;100.00
69058;BME280;56128;37.534;-122.308;2023-02-19T06:31:20;101735.59;;;5.17;100.00
69058;BME280;56128;37.534;-122.308;2023-02-19T06:33:47;101734.84;;;5.14;100.00
69058;BME280;56128;37.534;-122.308;2023-02-19T06:36:17;101734.09;;;5.10;100.00
69058;BME280;56128;37.534;-122.308;2023-02-19T06:38:44;101737.91;;;5.03;100.00
69058;BME280;56128;37.534;-122.308;2023-02-19T06:41:10;101742.28;;;5.04;100.00
69058;BME280;56128;37.534;-122.308;2023-02-19T06:43:37;101750.41;;;4.99;100.00
69058;BME280;56128;37.534;-122.308;2023-02-19T06:46:06;101749.72;;;4.94;100.00
69058;BME280;56128;37.534;-122.308;2023-02-19T06:48:33;101756.88;;;4.92;100.00
69058;BME280;56128;37.534;-122.308;2023-02-19T06:50:59;101756.97;;;4.89;100.00
69058;BME280;56128;37.534;-122.308;2023-02-19T06:53:26;101748.53;;;4.78;100.00
69058;BME280;56128;37.534;-122.308;2023-02-19T06:56:04;101750.28;;;4.79;100.00
69058;BME280;56128;37.534;-122.308;2023-02-19T06:58:31;101748.53;;;4.78;100.00
69058;BME280;56128;37.534;-122.308;2023-02-19T07:00:58;101754.03;;;4.73;100.00
69058;BME280;56128;37.534;-122.308;2023-02-19T07:03:24;101747.91;;;4.71;100.00
69058;BME280;56128;37.534;-122.308;2023-02-19T07:05:51;101745.31;;;4.69;100.00
69058;BME280;56128;37.534;-122.308;2023-02-19T07:08:17;101741.84;;;4.67;100.00
69058;BME280;56128;37.534;-122.308;2023-02-19T07:10:44;101749.03;;;4.64;100.00
69058;BME280;56128;37.534;-122.308;2023-02-19T07:13:10;101752.59;;;4.63;100.00
69058;BME280;56128;37.534;-122.308;2023-02-19T07:15:37;101735.22;;;4.55;100.00
69058;BME280;56128;37.534;-122.308;2023-02-19T07:18:03;101740.44;;;4.57;100.00
69058;BME280;56128;37.534;-122.308;2023-02-19T07:20:31;101739.75;;;4.52;100.00
69058;BME280;56128;37.534;-122.308;2023-02-19T07:22:57;101742.41;;;4.52;100.00
69058;BME280;56128;37.534;-122.308;2023-02-19T07:25:24;101747.78;;;4.49;100.00
69058;BME280;56128;37.534;-122.308;2023-02-19T07:27:50;101745.97;;;4.51;100.00
69058;BME280;56128;37.534;-122.308;2023-02-19T07:30:16;101739.00;;;4.48;100.00
69058;BME280;56128;37.534;-122.308;2023-02-19T07:32:42;101736.84;;;4.33;100.00
69058;BME280;56128;37.534;-122.308;2023-02-19T07:35:10;101742.06;;;4.36;100.00
69058;BME280;56128;37.534;-122.308;2023-02-19T07:37:36;101748.22;;;4.36;100.00
69058;BME280;56128;37.534;-122.308;2023-02-19T07:40:03;101753.56;;;4.35;100.00
69058;BME280;56128;37.534;-122.308;2023-02-19T07:42:29;101744.00;;;4.31;100.00
69058;BME280;56128;37.534;-122.308;2023-02-19T07:44:55;101752.03;;;4.28;100.00
69058;BME280;56128;37.534;-122.308;2023-02-19T07:47:22;101748.59;;;4.26;100.00
69058;BME280;56128;37.534;-122.308;2023-02-19T07:49:48;101755.78;;;4.22;100.00
69058;BME280;56128;37.534;-122.308;2023-02-19T07:52:14;101756.69;;;4.21;100.00
69058;BME280;56128;37.534;-122.308;2023-02-19T07:54:40;101764.66;;;4.21;100.00
69058;BME280;56128;37.534;-122.308;2023-02-19T07:57:06;101745.47;;;4.13;100.00
69058;BME280;56128;37.534;-122.308;2023-02-19T07:59:33;101740.94;;;4.16;100.00
69058;BME280;56128;37.534;-122.308;2023-02-19T08:01:59;101740.19;;;4.13;100.00
69058;BME280;56128;37.534;-122.308;2023-02-19T08:04:46;101739.59;;;4.04;100.00
69058;BME280;56128;37.534;-122.308;2023-02-19T08:07:13;101732.50;;;4.05;100.00
69058;BME280;56128;37.534;-122.308;2023-02-19T08:09:39;101727.13;;;4.06;100.00
69058;BME280;56128;37.534;-122.308;2023-02-19T08:12:05;101693.84;;;3.99;100.00
69058;BME280;56128;37.534;-122.308;2023-02-19T08:14:50;101697.47;;;3.97;100.00
69058;BME280;56128;37.534;-122.308;2023-02-19T08:17:16;101706.41;;;3.93;100.00
69058;BME280;56128;37.534;-122.308;2023-02-19T08:19:42;101727.56;;;3.94;100.00
69058;BME280;56128;37.534;-122.308;2023-02-19T08:22:08;101736.50;;;3.92;100.00
69058;BME280;56128;37.534;-122.308;2023-02-19T08:24:34;101734.94;;;3.84;100.00
69058;BME280;56128;37.534;-122.308;2023-02-19T08:27:02;101728.81;;;3.82;100.00
69058;BME280;56128;37.534;-122.308;2023-02-19T08:29:28;101728.03;;;3.80;100.00
69058;BME280;56128;37.534;-122.308;2023-02-19T08:31:54;101704.34;;;3.76;100.00
69058;BME280;56128;37.534;-122.308;2023-02-19T08:34:21;101705.19;;;3.76;100.00
69058;BME280;56128;37.534;-122.308;2023-02-19T08:36:47;101703.47;;;3.75;100.00
69058;BME280;56128;37.534;-122.308;2023-02-19T08:39:13;101700.94;;;3.72;100.00
69058;BME280;56128;37.534;-122.308;2023-02-19T08:41:39;101706.28;;;3.70;100.00
69058;BME280;56128;37.534;-122.308;2023-02-19T08:44:05;101698.47;;;3.66;100.00
69058;BME280;56128;37.534;-122.308;2023-02-19T08:46:32;101694.91;;;3.67;100.00
69058;BME280;56128;37.534;-122.308;2023-02-19T08:48:58;101688.84;;;3.63;100.00
69058;BME280;56128;37.534;-122.308;2023-02-19T08:51:24;101697.72;;;3.62;100.00
69058;BME280;56128;37.534;-122.308;2023-02-19T08:53:50;101702.09;;;3.63;100.00
69058;BME280;56128;37.534;-122.308;2023-02-19T08:56:16;101704.81;;;3.60;100.00
69058;BME280;56128;37.534;-122.308;2023-02-19T08:58:43;101703.19;;;3.56;100.00
69058;BME280;56128;37.534;-122.308;2023-02-19T09:01:12;101718.28;;;3.54;100.00
69058;BME280;56128;37.534;-122.308;2023-02-19T09:03:39;101724.56;;;3.50;100.00
69058;BME280;56128;37.534;-122.308;2023-02-19T09:06:05;101733.56;;;3.44;100.00
69058;BME280;56128;37.534;-122.308;2023-02-19T09:08:32;101744.22;;;3.41;100.00
69058;BME280;56128;37.534;-122.308;2023-02-19T09:11:02;101744.38;;;3.36;100.00
69058;BME280;56128;37.534;-122.308;2023-02-19T09:13:29;101751.50;;;3.34;100.00
69058;BME280;56128;37.534;-122.308;2023-02-19T09:15:56;101749.09;;;3.27;100.00
69058;BME280;56128;37.534;-122.308;2023-02-19T09:18:23;101765.81;;;3.27;100.00
69058;BME280;56128;37.534;-122.308;2023-02-19T09:20:49;101761.59;;;3.20;100.00
69058;BME280;56128;37.534;-122.308;2023-02-19T09:23:16;101767.78;;;3.20;100.00
69058;BME280;56128;37.534;-122.308;2023-02-19T09:25:42;101757.28;;;3.17;100.00
69058;BME280;56128;37.534;-122.308;2023-02-19T09:28:08;101756.38;;;3.18;100.00
69058;BME280;56128;37.534;-122.308;2023-02-19T09:30:35;101753.84;;;3.14;100.00
69058;BME280;56128;37.534;-122.308;2023-02-19T09:33:03;101751.19;;;3.14;100.00
69058;BME280;56128;37.534;-122.308;2023-02-19T09:35:29;101753.09;;;3.10;100.00
69058;BME280;56128;37.534;-122.308;2023-02-19T09:37:58;101756.69;;;3.07;100.00
69058;BME280;56128;37.534;-122.308;2023-02-19T09:40:25;101758.56;;;3.04;100.00
69058;BME280;56128;37.534;-122.308;2023-02-19T09:42:51;101757.78;;;3.00;100.00
69058;BME280;56128;37.534;-122.308;2023-02-19T09:45:22;101749.91;;;2.99;100.00
69058;BME280;56128;37.534;-122.308;2023-02-19T09:47:54;101759.59;;;2.98;100.00
69058;BME280;56128;37.534;-122.308;2023-02-19T09:50:31;101743.09;;;2.88;100.00
69058;BME280;56128;37.534;-122.308;2023-02-19T09:53:02;101749.19;;;2.92;100.00
69058;BME280;56128;37.534;-122.308;2023-02-19T09:55:33;101750.09;;;2.91;100.00
69058;BME280;56128;37.534;-122.308;2023-02-19T09:58:25;101744.97;;;2.85;100.00
69058;BME280;56128;37.534;-122.308;2023-02-19T10:00:54;101737.13;;;2.82;100.00
69058;BME280;56128;37.534;-122.308;2023-02-19T10:03:27;101739.72;;;2.83;100.00
69058;BME280;56128;37.534;-122.308;2023-02-19T10:06:04;101737.13;;;2.82;100.00
69058;BME280;56128;37.534;-122.308;2023-02-19T10:08:33;101730.28;;;2.74;100.00
69058;BME280;56128;37.534;-122.308;2023-02-19T10:11:01;101718.97;;;2.69;100.00
69058;BME280;56128;37.534;-122.308;2023-02-19T10:13:33;101728.66;;;2.70;100.00
69058;BME280;56128;37.534;-122.308;2023-02-19T10:16:03;101733.94;;;2.70;100.00
69058;BME280;56128;37.534;-122.308;2023-02-19T10:18:48;101741.19;;;2.62;100.00
69058;BME280;56128;37.534;-122.308;2023-02-19T10:21:20;101750.06;;;2.61;100.00
69058;BME280;56128;37.534;-122.308;2023-02-19T10:23:53;101751.91;;;2.56;100.00
69058;BME280;56128;37.534;-122.308;2023-02-19T10:26:21;101740.75;;;2.46;100.00
69058;BME280;56128;37.534;-122.308;2023-02-19T10:28:48;101738.88;;;2.50;100.00
69058;BME280;56128;37.534;-122.308;2023-02-19T10:31:20;101732.78;;;2.48;100.00
69058;BME280;56128;37.534;-122.308;2023-02-19T10:33:48;101745.00;;;2.52;100.00
69058;BME280;56128;37.534;-122.308;2023-02-19T10:36:27;101748.53;;;2.51;100.00
69058;BME280;56128;37.534;-122.308;2023-02-19T10:38:54;101743.25;;;2.52;100.00
69058;BME280;56128;37.534;-122.308;2023-02-19T10:41:23;101734.59;;;2.46;100.00
69058;BME280;56128;37.534;-122.308;2023-02-19T10:43:54;101725.72;;;2.48;100.00
69058;BME280;56128;37.534;-122.308;2023-02-19T10:46:22;101724.06;;;2.44;100.00
69058;BME280;56128;37.534;-122.308;2023-02-19T10:51:41;101708.44;;;2.36;100.00
69058;BME280;56128;37.534;-122.308;2023-02-19T10:54:28;101702.25;;;2.37;100.00
69058;BME280;56128;37.534;-122.308;2023-02-19T11:02:20;101707.53;;;2.36;100.00
69058;BME280;56128;37.534;-122.308;2023-02-19T11:12:54;101706.84;;;2.29;100.00
69058;BME280;56128;37.534;-122.308;2023-02-19T11:15:33;101702.47;;;2.28;100.00
69058;BME280;56128;37.534;-122.308;2023-02-19T11:20:29;101708.75;;;2.24;100.00
69058;BME280;56128;37.534;-122.308;2023-02-19T11:23:12;101695.63;;;2.21;100.00
69058;BME280;56128;37.534;-122.308;2023-02-19T11:25:45;101711.50;;;2.19;100.00
69058;BME280;56128;37.534;-122.308;2023-02-19T11:28:32;101702.78;;;2.17;100.00
69058;BME280;56128;37.534;-122.308;2023-02-19T11:31:33;101691.31;;;2.17;100.00
69058;BME280;56128;37.534;-122.308;2023-02-19T11:37:14;101675.59;;;2.14;100.00
69058;BME280;56128;37.534;-122.308;2023-02-19T11:39:49;101685.16;;;2.18;100.00
69058;BME280;56128;37.534;-122.308;2023-02-19T11:42:30;101689.59;;;2.16;100.00
69058;BME280;56128;37.534;-122.308;2023-02-19T11:45:28;101699.31;;;2.15;100.00
69058;BME280;56128;37.534;-122.308;2023-02-19T11:48:11;101709.97;;;2.10;100.00
69058;BME280;56128;37.534;-122.308;2023-02-19T11:53:31;101702.25;;;2.03;100.00
69058;BME280;56128;37.534;-122.308;2023-02-19T11:59:00;101700.56;;;2.00;100.00
69058;BME280;56128;37.534;-122.308;2023-02-19T12:01:47;101688.31;;;1.98;100.00
69058;BME280;56128;37.534;-122.308;2023-02-19T12:04:36;101698.06;;;1.94;100.00
69058;BME280;56128;37.534;-122.308;2023-02-19T12:13:33;101709.72;;;1.85;100.00
69058;BME280;56128;37.534;-122.308;2023-02-19T12:18:50;101704.53;;;1.82;100.00
69058;BME280;56128;37.534;-122.308;2023-02-19T12:22:13;101703.78;;;1.77;100.00
69058;BME280;56128;37.534;-122.308;2023-02-19T12:27:44;101703.22;;;1.62;100.00
69058;BME280;56128;37.534;-122.308;2023-02-19T12:33:53;101715.72;;;1.56;100.00
69058;BME280;56128;37.534;-122.308;2023-02-19T12:39:05;101720.16;;;1.54;100.00
69058;BME280;56128;37.534;-122.308;2023-02-19T12:41:43;101721.88;;;1.55;100.00
69058;BME280;56128;37.534;-122.308;2023-02-19T12:44:29;101723.69;;;1.53;100.00
69058;BME280;56128;37.534;-122.308;2023-02-19T12:47:00;101725.50;;;1.49;100.00
69058;BME280;56128;37.534;-122.308;2023-02-19T12:49:44;101717.72;;;1.44;100.00
69058;BME280;56128;37.534;-122.308;2023-02-19T12:52:26;101723.84;;;1.45;100.00
69058;BME280;56128;37.534;-122.308;2023-02-19T12:54:56;101726.44;;;1.46;100.00
69058;BME280;56128;37.534;-122.308;2023-02-19T12:57:33;101733.56;;;1.43;100.00
69058;BME280;56128;37.534;-122.308;2023-02-19T13:02:52;101740.69;;;1.39;100.00
69058;BME280;56128;37.534;-122.308;2023-02-19T13:05:36;101724.94;;;1.36;100.00
69058;BME280;56128;37.534;-122.308;2023-02-19T13:08:22;101730.28;;;1.33;100.00
69058;BME280;56128;37.534;-122.308;2023-02-19T13:10:55;101726.66;;;1.37;100.00
69058;BME280;56128;37.534;-122.308;2023-02-19T13:13:48;101722.38;;;1.33;100.00
69058;BME280;56128;37.534;-122.308;2023-02-19T13:16:15;101719.75;;;1.33;100.00
69058;BME280;56128;37.534;-122.308;2023-02-19T13:19:15;101726.81;;;1.31;100.00
69058;BME280;56128;37.534;-122.308;2023-02-19T13:21:36;101721.56;;;1.29;100.00
69058;BME280;56128;37.534;-122.308;2023-02-19T13:24:27;101728.59;;;1.29;100.00
69058;BME280;56128;37.534;-122.308;2023-02-19T13:27:07;101734.78;;;1.28;100.00
69058;BME280;56128;37.534;-122.308;2023-02-19T13:35:41;101737.53;;;1.23;100.00
69058;BME280;56128;37.534;-122.308;2023-02-19T13:38:16;101746.38;;;1.21;100.00
69058;BME280;56128;37.534;-122.308;2023-02-19T13:40:56;101735.88;;;1.18;100.00
69058;BME280;56128;37.534;-122.308;2023-02-19T13:43:29;101740.22;;;1.20;100.00
69058;BME280;56128;37.534;-122.308;2023-02-19T13:46:08;101738.47;;;1.21;100.00
69058;BME280;56128;37.534;-122.308;2023-02-19T13:48:38;101741.09;;;1.21;100.00
69058;BME280;56128;37.534;-122.308;2023-02-19T13:59:23;101752.56;;;1.18;100.00
69058;BME280;56128;37.534;-122.308;2023-02-19T14:14:53;101766.88;;;1.06;100.00
69058;BME280;56128;37.534;-122.308;2023-02-19T14:28:26;101765.13;;;1.07;100.00